Time;durP1;ratioP1;P1;durP2;ratioP2;P2;SDS_P1;SDS_P2;PMS_P1;PMS_P2;Temp;Humidity;BMP_temperature;BMP_pressure;BME280_temperature;BME280_humidity;BME280_pressure;Samples;Min_cycle;Max_cycle;Signal;HPM_P1;HPM_P2
2022/12/02 00:01:51;;;;;;;32.92;17.92;;;;;11.40;102445.00;;;;5025531;28;20228;-75
2022/12/02 00:04:22;;;;;;;37.00;19.65;;;;;11.30;102440.00;;;;5018706;28;20200;-75
2022/12/02 00:06:50;;;;;;;35.03;18.85;;;;;11.30;102442.00;;;;5024448;28;20201;-75
2022/12/02 00:09:26;;;;;;;33.67;19.30;;;;;11.30;102445.00;;;;5007981;28;20200;-75
2022/12/02 00:11:53;;;;;;;38.55;20.63;;;;;11.30;102446.00;;;;5008550;28;20247;-75
2022/12/02 00:14:23;;;;;;;34.90;20.35;;;;;11.30;102441.00;;;;5008438;28;20679;-75
2022/12/02 00:16:51;;;;;;;38.58;20.10;;;;;11.40;102438.00;;;;5010180;28;20212;-75
2022/12/02 00:19:18;;;;;;;37.00;19.55;;;;;11.40;102438.00;;;;5027220;28;20192;-75
2022/12/02 00:21:46;;;;;;;42.03;22.17;;;;;11.30;102427.00;;;;5020561;28;20204;-75
2022/12/02 00:24:13;;;;;;;37.72;21.17;;;;;11.30;102437.00;;;;5028223;28;20200;-75
2022/12/02 00:26:42;;;;;;;39.55;22.52;;;;;11.30;102429.00;;;;5025673;28;20674;-75
2022/12/02 00:29:09;;;;;;;39.72;21.05;;;;;11.30;102426.00;;;;5027816;28;20208;-75
2022/12/02 00:31:36;;;;;;;42.42;22.38;;;;;11.30;102420.00;;;;5023475;28;20227;-75
2022/12/02 00:34:04;;;;;;;37.00;21.17;;;;;11.30;102417.00;;;;5027730;28;20201;-75
2022/12/02 00:36:32;;;;;;;43.22;22.58;;;;;11.30;102426.00;;;;5008620;28;20316;-75
2022/12/02 00:39:00;;;;;;;39.95;20.02;;;;;11.30;102425.00;;;;5016521;28;20203;-75
2022/12/02 00:41:27;;;;;;;39.88;22.27;;;;;11.30;102426.00;;;;5008465;28;20205;-75
2022/12/02 00:46:40;;;;;;;38.47;21.67;;;;;11.30;102429.00;;;;5015792;28;20680;-75
2022/12/02 00:49:09;;;;;;;39.05;22.02;;;;;11.20;102434.00;;;;5023324;28;20200;-75
2022/12/02 00:51:38;;;;;;;45.45;23.73;;;;;11.20;102429.00;;;;5024781;28;20239;-75
2022/12/02 00:54:06;;;;;;;40.10;21.50;;;;;11.30;102418.00;;;;5022225;28;20200;-75
2022/12/02 00:56:33;;;;;;;40.25;22.65;;;;;11.30;102420.00;;;;5025661;28;20193;-75
2022/12/02 00:59:03;;;;;;;42.47;21.70;;;;;11.20;102408.00;;;;5018376;28;20674;-75
2022/12/02 01:01:31;;;;;;;39.03;21.27;;;;;11.30;102410.00;;;;5012036;28;20217;-75
2022/12/02 01:03:58;;;;;;;41.20;21.80;;;;;11.30;102405.00;;;;5012546;28;20197;-75
2022/12/02 01:06:25;;;;;;;44.40;21.92;;;;;11.30;102413.00;;;;5012219;28;20656;-75
2022/12/02 01:08:53;;;;;;;48.47;22.02;;;;;11.30;102406.00;;;;5013600;28;20687;-75
2022/12/02 01:11:20;;;;;;;44.67;22.83;;;;;11.30;102413.00;;;;5021355;28;20228;-75
2022/12/02 01:13:47;;;;;;;41.95;22.30;;;;;11.30;102404.00;;;;5020551;28;20205;-75
2022/12/02 01:16:16;;;;;;;45.80;22.60;;;;;11.30;102405.00;;;;5018371;28;20208;-75
2022/12/02 01:18:43;;;;;;;39.30;21.00;;;;;11.30;102408.00;;;;5013230;28;20691;-75
2022/12/02 01:21:11;;;;;;;42.00;21.50;;;;;11.30;102410.00;;;;5010102;28;20201;-75
2022/12/02 01:23:38;;;;;;;40.15;21.08;;;;;11.30;102406.00;;;;5011351;28;20201;-75
2022/12/02 01:26:05;;;;;;;42.63;21.67;;;;;11.30;102410.00;;;;5010051;28;20213;-75
2022/12/02 01:28:33;;;;;;;46.85;23.70;;;;;11.40;102412.00;;;;5009946;28;20204;-75
2022/12/02 01:31:00;;;;;;;40.58;20.92;;;;;11.40;102400.00;;;;5025379;28;20686;-75
2022/12/02 01:33:28;;;;;;;41.88;20.52;;;;;11.40;102407.00;;;;5016561;28;20203;-75
2022/12/02 01:35:56;;;;;;;42.58;21.35;;;;;11.40;102409.00;;;;5023073;28;20221;-75
2022/12/02 01:38:23;;;;;;;43.75;23.00;;;;;11.40;102405.00;;;;5029889;28;20211;-75
2022/12/02 01:40:50;;;;;;;40.05;21.80;;;;;11.40;102405.00;;;;5011153;28;20570;-75
2022/12/02 01:43:18;;;;;;;38.97;22.52;;;;;11.40;102405.00;;;;5012045;28;20578;-75
2022/12/02 01:45:45;;;;;;;39.53;19.95;;;;;11.40;102404.00;;;;5018852;28;20668;-75
2022/12/02 01:48:12;;;;;;;39.28;21.80;;;;;11.40;102412.00;;;;5011568;28;20201;-75
2022/12/02 01:50:41;;;;;;;41.50;22.90;;;;;11.50;102409.00;;;;5029290;28;20292;-76
2022/12/02 01:53:08;;;;;;;39.40;20.85;;;;;11.50;102409.00;;;;5031565;28;20605;-75
2022/12/02 01:55:36;;;;;;;43.72;21.63;;;;;11.50;102413.00;;;;5027982;28;20205;-75
2022/12/02 01:58:03;;;;;;;38.67;20.70;;;;;11.50;102407.00;;;;5030965;28;20200;-75
2022/12/02 02:00:30;;;;;;;44.25;21.08;;;;;11.50;102413.00;;;;5021251;28;20197;-75
2022/12/02 02:02:58;;;;;;;42.25;22.33;;;;;11.50;102414.00;;;;5022222;28;20220;-75
2022/12/02 02:05:28;;;;;;;38.45;21.45;;;;;11.50;102410.00;;;;5030439;28;20192;-75
2022/12/02 02:07:59;;;;;;;40.20;21.45;;;;;11.50;102413.00;;;;5023187;28;20204;-75
2022/12/02 02:10:28;;;;;;;36.85;20.15;;;;;11.50;102411.00;;;;5011337;28;20197;-75
2022/12/02 02:12:55;;;;;;;38.60;20.38;;;;;11.50;102411.00;;;;5010915;28;20220;-75
2022/12/02 02:15:23;;;;;;;40.17;21.10;;;;;11.50;102411.00;;;;5017098;28;20938;-75
2022/12/02 02:17:51;;;;;;;39.13;20.63;;;;;11.40;102413.00;;;;5021473;28;20228;-75
2022/12/02 02:20:21;;;;;;;37.33;20.23;;;;;11.40;102407.00;;;;5012102;28;20197;-76
2022/12/02 02:22:54;;;;;;;39.33;20.85;;;;;11.40;102404.00;;;;5010905;28;20201;-75
2022/12/02 02:25:23;;;;;;;36.40;20.58;;;;;11.40;102410.00;;;;5014147;28;20662;-75
2022/12/02 02:27:54;;;;;;;38.20;19.80;;;;;11.40;102400.00;;;;5029058;28;20243;-75
2022/12/02 02:30:21;;;;;;;38.53;21.17;;;;;11.40;102405.00;;;;5027040;28;20200;-75
2022/12/02 02:32:49;;;;;;;38.90;20.85;;;;;11.40;102396.00;;;;5010887;28;20225;-75
2022/12/02 02:35:18;;;;;;;41.40;21.45;;;;;11.30;102397.00;;;;5015191;28;20224;-75
2022/12/02 02:37:46;;;;;;;42.63;22.15;;;;;11.30;102394.00;;;;5021892;28;20580;-75
2022/12/02 02:40:15;;;;;;;39.22;20.88;;;;;11.30;102400.00;;;;5010415;28;20205;-75
2022/12/02 02:42:44;;;;;;;37.30;20.25;;;;;11.30;102394.00;;;;5009949;28;20205;-75
2022/12/02 02:45:12;;;;;;;36.40;19.42;;;;;11.20;102399.00;;;;5010337;28;20575;-75
2022/12/02 02:47:40;;;;;;;39.90;21.52;;;;;11.20;102390.00;;;;5009622;28;20209;-75
2022/12/02 02:50:08;;;;;;;35.42;18.77;;;;;11.20;102390.00;;;;5008941;28;20201;-75
2022/12/02 02:52:35;;;;;;;38.22;20.35;;;;;11.20;102392.00;;;;5010284;28;20224;-75
2022/12/02 02:55:03;;;;;;;36.38;18.88;;;;;11.10;102385.00;;;;5010393;28;20205;-75
2022/12/02 02:57:31;;;;;;;34.08;17.92;;;;;11.10;102383.00;;;;5009990;28;20201;-75
2022/12/02 03:00:00;;;;;;;35.40;18.08;;;;;11.10;102386.00;;;;5009508;28;20255;-75
2022/12/02 03:02:27;;;;;;;32.15;15.95;;;;;11.10;102384.00;;;;5026698;28;20216;-75
2022/12/02 03:04:55;;;;;;;34.10;16.90;;;;;11.10;102386.00;;;;5024093;28;20205;-75
2022/12/02 03:07:22;;;;;;;37.10;18.73;;;;;11.00;102376.00;;;;5019854;28;20197;-75
2022/12/02 03:09:50;;;;;;;35.50;17.45;;;;;11.00;102372.00;;;;5011397;28;20663;-75
2022/12/02 03:12:18;;;;;;;33.83;16.65;;;;;10.90;102362.00;;;;5010547;28;20243;-75
2022/12/02 03:14:46;;;;;;;34.88;17.17;;;;;10.90;102362.00;;;;5009442;28;20200;-75
2022/12/02 03:17:15;;;;;;;35.70;16.50;;;;;10.90;102353.00;;;;5009309;28;20205;-75
2022/12/02 03:19:43;;;;;;;35.83;16.98;;;;;10.90;102346.00;;;;5009300;28;20730;-75
2022/12/02 03:22:11;;;;;;;32.95;15.65;;;;;10.90;102338.00;;;;5009825;28;20594;-75
2022/12/02 03:24:39;;;;;;;33.17;15.95;;;;;10.90;102344.00;;;;5009797;28;20203;-75
2022/12/02 03:27:09;;;;;;;30.05;15.43;;;;;10.80;102347.00;;;;5010243;28;20200;-75
2022/12/02 03:29:36;;;;;;;32.13;16.35;;;;;10.90;102354.00;;;;5028999;28;20728;-75
2022/12/02 03:32:04;;;;;;;36.17;15.75;;;;;10.90;102355.00;;;;5028498;28;20615;-75
2022/12/02 03:34:33;;;;;;;31.73;15.95;;;;;10.90;102355.00;;;;5013722;28;20236;-75
2022/12/02 03:37:01;;;;;;;31.48;15.45;;;;;10.90;102360.00;;;;5014960;28;20276;-75
2022/12/02 03:39:28;;;;;;;33.47;15.63;;;;;10.90;102357.00;;;;5009130;28;20209;-75
2022/12/02 03:41:56;;;;;;;32.20;14.57;;;;;10.90;102361.00;;;;5008277;28;20578;-75
2022/12/02 03:44:23;;;;;;;35.22;16.92;;;;;10.80;102360.00;;;;5016039;28;20204;-75
2022/12/02 03:46:50;;;;;;;32.17;17.08;;;;;10.80;102362.00;;;;5020415;28;20227;-75
2022/12/02 03:49:18;;;;;;;31.58;15.75;;;;;10.80;102359.00;;;;5022619;28;20201;-75
2022/12/02 03:51:48;;;;;;;33.20;15.90;;;;;10.80;102362.00;;;;5013860;28;20701;-75
2022/12/02 03:54:16;;;;;;;33.75;14.98;;;;;10.80;102364.00;;;;5017295;28;20629;-75
2022/12/02 03:56:43;;;;;;;33.88;15.77;;;;;10.80;102354.00;;;;5025887;28;20208;-75
2022/12/02 03:59:18;;;;;;;31.83;15.85;;;;;10.80;102353.00;;;;5008168;28;20706;-75
2022/12/02 04:01:45;;;;;;;36.00;15.98;;;;;10.80;102349.00;;;;5015019;28;20231;-75
2022/12/02 04:04:12;;;;;;;34.33;15.52;;;;;10.80;102346.00;;;;5014515;28;20196;-75
2022/12/02 04:06:39;;;;;;;30.05;13.70;;;;;10.80;102344.00;;;;5007769;28;20212;-75
2022/12/02 04:09:08;;;;;;;33.33;14.95;;;;;10.80;102346.00;;;;5008417;28;20659;-75
2022/12/02 04:11:35;;;;;;;33.33;14.80;;;;;10.70;102344.00;;;;5026429;28;20673;-75
2022/12/02 04:14:02;;;;;;;36.03;16.75;;;;;10.70;102349.00;;;;5027817;28;20192;-75
2022/12/02 04:16:30;;;;;;;34.20;15.30;;;;;10.70;102351.00;;;;5020130;28;20193;-76
2022/12/02 04:18:57;;;;;;;35.90;16.40;;;;;10.70;102340.00;;;;5017604;28;20196;-75
2022/12/02 04:21:24;;;;;;;33.53;15.65;;;;;10.70;102332.00;;;;5027994;28;20571;-75
2022/12/02 04:23:52;;;;;;;29.35;13.90;;;;;10.70;102334.00;;;;5016047;28;20203;-75
2022/12/02 04:26:21;;;;;;;31.10;15.45;;;;;10.70;102336.00;;;;5020092;28;21122;-75
2022/12/02 04:28:48;;;;;;;36.67;16.02;;;;;10.70;102330.00;;;;5015342;28;20189;-75
2022/12/02 04:31:15;;;;;;;29.05;15.15;;;;;10.70;102324.00;;;;5032278;28;20192;-75
2022/12/02 04:33:42;;;;;;;31.70;15.88;;;;;10.70;102319.00;;;;5031699;28;20582;-75
2022/12/02 04:36:10;;;;;;;30.83;13.80;;;;;10.70;102320.00;;;;5028268;28;20247;-75
2022/12/02 04:38:37;;;;;;;32.20;14.52;;;;;10.70;102312.00;;;;5021583;28;20232;-75
2022/12/02 04:41:04;;;;;;;30.55;13.27;;;;;10.70;102324.00;;;;5013620;28;20200;-75
2022/12/02 04:43:33;;;;;;;29.00;13.52;;;;;10.70;102308.00;;;;5030816;28;20215;-75
2022/12/02 04:46:00;;;;;;;30.98;14.80;;;;;10.70;102316.00;;;;5023457;28;20675;-75
2022/12/02 04:48:27;;;;;;;28.98;14.00;;;;;10.70;102308.00;;;;5012013;28;20201;-75
2022/12/02 04:50:54;;;;;;;31.60;15.13;;;;;10.70;102312.00;;;;5012955;28;20193;-75
2022/12/02 04:53:22;;;;;;;32.08;16.13;;;;;10.70;102313.00;;;;5019492;28;20229;-75
2022/12/02 04:55:49;;;;;;;28.58;14.32;;;;;10.70;102307.00;;;;5011880;28;20209;-75
2022/12/02 04:58:16;;;;;;;29.60;14.45;;;;;10.70;102311.00;;;;5016209;28;20211;-75
2022/12/02 05:00:45;;;;;;;31.52;15.38;;;;;10.70;102315.00;;;;5024549;28;20703;-75
2022/12/02 05:03:12;;;;;;;35.58;15.55;;;;;10.70;102326.00;;;;5012011;28;20208;-75
2022/12/02 05:05:39;;;;;;;30.27;14.10;;;;;10.70;102316.00;;;;5018674;28;20204;-75
2022/12/02 05:08:06;;;;;;;29.90;14.43;;;;;10.70;102311.00;;;;5012263;28;20200;-75
2022/12/02 05:10:34;;;;;;;31.25;14.90;;;;;10.70;102301.00;;;;5012253;28;20663;-75
2022/12/02 05:13:01;;;;;;;29.48;14.43;;;;;10.70;102287.00;;;;5011179;28;20221;-75
2022/12/02 05:15:28;;;;;;;29.83;14.80;;;;;10.70;102297.00;;;;5020473;28;20204;-75
2022/12/02 05:17:57;;;;;;;29.70;13.95;;;;;10.70;102304.00;;;;5012239;28;20296;-75
2022/12/02 05:20:24;;;;;;;32.45;15.10;;;;;10.70;102304.00;;;;5011038;28;20677;-75
2022/12/02 05:22:51;;;;;;;32.08;14.93;;;;;10.70;102293.00;;;;5011409;28;20694;-75
2022/12/02 05:25:19;;;;;;;31.08;14.35;;;;;10.70;102290.00;;;;5015714;28;20332;-75
2022/12/02 05:27:46;;;;;;;31.63;14.18;;;;;10.70;102289.00;;;;5017943;28;20204;-75
2022/12/02 05:30:14;;;;;;;30.40;13.95;;;;;10.70;102297.00;;;;5011344;28;20201;-76
2022/12/02 05:32:41;;;;;;;32.67;15.02;;;;;10.70;102294.00;;;;5014243;28;20578;-75
2022/12/02 05:35:10;;;;;;;31.30;14.70;;;;;10.70;102288.00;;;;5011342;28;20232;-76
2022/12/02 05:37:37;;;;;;;30.15;13.88;;;;;10.70;102288.00;;;;5009109;28;20667;-76
2022/12/02 05:40:06;;;;;;;30.60;14.32;;;;;10.70;102290.00;;;;5010796;28;20204;-76
2022/12/02 05:42:34;;;;;;;29.98;14.57;;;;;10.70;102293.00;;;;5010375;28;20201;-76
2022/12/02 05:45:10;;;;;;;32.42;14.23;;;;;10.70;102289.00;;;;5010693;28;20659;-75
2022/12/02 05:47:37;;;;;;;35.33;14.88;;;;;10.70;102292.00;;;;5024380;28;20215;-76
2022/12/02 05:50:12;;;;;;;32.03;14.00;;;;;10.70;102299.00;;;;5023821;28;20208;-76
2022/12/02 05:52:39;;;;;;;31.27;14.40;;;;;10.70;102293.00;;;;5011470;28;20228;-76
2022/12/02 05:55:13;;;;;;;30.50;14.27;;;;;10.60;102300.00;;;;5010930;28;20727;-76
2022/12/02 05:57:40;;;;;;;29.65;12.88;;;;;10.60;102298.00;;;;5009321;28;20189;-76
2022/12/02 06:00:15;;;;;;;32.08;14.07;;;;;10.60;102299.00;;;;5011800;28;20189;-76
2022/12/02 06:02:45;;;;;;;27.38;12.73;;;;;10.60;102285.00;;;;5010060;28;20259;-76
2022/12/02 06:05:23;;;;;;;29.30;14.63;;;;;10.50;102295.00;;;;5017071;28;20205;-76
2022/12/02 06:07:53;;;;;;;29.90;13.07;;;;;10.50;102286.00;;;;5022684;28;20208;-76
2022/12/02 06:10:27;;;;;;;27.05;12.57;;;;;10.50;102287.00;;;;5030479;28;20200;-76
2022/12/02 06:12:57;;;;;;;25.48;12.05;;;;;10.50;102294.00;;;;5031056;28;20592;-76
2022/12/02 06:15:25;;;;;;;26.80;11.68;;;;;10.50;102296.00;;;;5016092;28;20201;-76
2022/12/02 06:17:53;;;;;;;25.35;12.13;;;;;10.50;102301.00;;;;5022041;28;20586;-76
2022/12/02 06:20:28;;;;;;;22.08;10.57;;;;;10.40;102291.00;;;;5028864;28;20200;-75
2022/12/02 06:22:56;;;;;;;21.85;11.48;;;;;10.40;102293.00;;;;5028284;28;20670;-76
2022/12/02 06:25:27;;;;;;;20.33;10.18;;;;;10.40;102292.00;;;;5029504;28;20196;-75
2022/12/02 06:27:59;;;;;;;21.83;10.88;;;;;10.40;102296.00;;;;5031629;28;20199;-76
2022/12/02 06:30:27;;;;;;;22.00;10.70;;;;;10.40;102299.00;;;;5017088;28;20204;-76
2022/12/02 06:32:57;;;;;;;24.42;11.77;;;;;10.40;102303.00;;;;5012174;28;20256;-75
2022/12/02 06:35:28;;;;;;;21.60;11.98;;;;;10.30;102302.00;;;;5011480;28;20236;-76
2022/12/02 06:37:58;;;;;;;24.15;11.50;;;;;10.30;102299.00;;;;5009494;28;20208;-75
2022/12/02 06:40:29;;;;;;;23.70;11.82;;;;;10.30;102294.00;;;;5008057;28;20201;-75
2022/12/02 06:42:59;;;;;;;21.55;11.57;;;;;10.30;102304.00;;;;5020764;28;20200;-75
2022/12/02 06:45:29;;;;;;;21.48;11.38;;;;;10.30;102299.00;;;;5009263;28;20700;-76
2022/12/02 06:48:03;;;;;;;26.33;11.60;;;;;10.30;102296.00;;;;5018520;28;20196;-76
2022/12/02 06:50:37;;;;;;;26.50;11.40;;;;;10.30;102299.00;;;;5016210;28;20208;-76
2022/12/02 06:53:34;;;;;;;21.23;11.38;;;;;10.30;102301.00;;;;5016414;28;20649;-76
2022/12/02 06:56:18;;;;;;;22.92;10.77;;;;;10.30;102297.00;;;;5006260;28;20209;-75
2022/12/02 06:58:47;;;;;;;19.00;10.45;;;;;10.30;102294.00;;;;5017285;28;20892;-74
2022/12/02 07:01:33;;;;;;;21.25;11.45;;;;;10.20;102301.00;;;;5010952;28;20593;-74
2022/12/02 07:04:16;;;;;;;22.17;10.30;;;;;10.30;102305.00;;;;5025624;28;20205;-74
2022/12/02 07:06:49;;;;;;;21.83;11.85;;;;;10.30;102305.00;;;;5016655;28;20493;-76
2022/12/02 07:09:20;;;;;;;25.52;12.63;;;;;10.30;102305.00;;;;5008063;28;20193;-76
2022/12/02 07:11:50;;;;;;;20.27;10.70;;;;;10.30;102308.00;;;;5013538;28;20204;-76
2022/12/02 07:14:25;;;;;;;20.55;10.77;;;;;10.20;102311.00;;;;5030039;28;20314;-76
2022/12/02 07:16:55;;;;;;;22.85;10.63;;;;;10.20;102310.00;;;;5012402;28;20751;-76
2022/12/02 07:19:26;;;;;;;22.15;10.75;;;;;10.20;102320.00;;;;5009697;28;20193;-76
2022/12/02 07:21:55;;;;;;;23.60;11.35;;;;;10.20;102320.00;;;;5009618;28;20204;-76
2022/12/02 07:24:23;;;;;;;20.45;9.98;;;;;10.20;102318.00;;;;5017086;28;20207;-76
2022/12/02 07:26:51;;;;;;;22.40;10.20;;;;;10.20;102317.00;;;;5012853;28;20208;-76
2022/12/02 07:29:26;;;;;;;18.80;10.52;;;;;10.10;102315.00;;;;5009004;28;20248;-76
2022/12/02 07:31:54;;;;;;;21.33;10.13;;;;;10.20;102322.00;;;;5026884;28;20253;-76
2022/12/02 07:34:21;;;;;;;19.92;10.43;;;;;10.10;102323.00;;;;5028712;28;20669;-76
2022/12/02 07:36:48;;;;;;;18.52;10.50;;;;;10.10;102314.00;;;;5029226;28;20192;-76
2022/12/02 07:39:17;;;;;;;20.35;10.30;;;;;10.10;102323.00;;;;5028906;28;20565;-76
2022/12/02 07:41:44;;;;;;;21.23;10.35;;;;;10.10;102324.00;;;;5024748;28;20208;-76
2022/12/02 07:44:11;;;;;;;18.88;10.18;;;;;10.00;102329.00;;;;5011762;28;20212;-76
2022/12/02 07:46:38;;;;;;;21.33;11.38;;;;;10.00;102332.00;;;;5009497;28;20630;-76
2022/12/02 07:49:06;;;;;;;23.38;11.07;;;;;10.00;102330.00;;;;5027451;28;20224;-76
2022/12/02 07:51:33;;;;;;;19.42;10.40;;;;;10.00;102332.00;;;;5028393;28;20211;-76
2022/12/02 07:54:00;;;;;;;20.50;10.65;;;;;10.00;102324.00;;;;5026157;28;20250;-76
2022/12/02 07:56:29;;;;;;;17.73;9.80;;;;;10.00;102328.00;;;;5011177;28;20189;-76
2022/12/02 07:58:56;;;;;;;21.42;10.43;;;;;10.00;102321.00;;;;5017872;28;20193;-76
2022/12/02 08:01:24;;;;;;;19.13;10.52;;;;;10.00;102328.00;;;;5009493;28;20216;-76
2022/12/02 08:03:51;;;;;;;19.92;10.40;;;;;10.00;102325.00;;;;5009226;28;20235;-76
2022/12/02 08:06:18;;;;;;;19.67;11.02;;;;;10.00;102322.00;;;;5008524;28;20196;-76
2022/12/02 08:08:46;;;;;;;21.70;10.52;;;;;10.00;102320.00;;;;5009398;28;20212;-76
2022/12/02 08:11:13;;;;;;;19.23;10.18;;;;;10.00;102325.00;;;;5018071;28;20208;-76
2022/12/02 08:13:42;;;;;;;17.73;9.70;;;;;10.00;102327.00;;;;5008503;28;20224;-76
2022/12/02 08:16:10;;;;;;;16.45;8.88;;;;;10.00;102326.00;;;;5009116;28;20582;-76
2022/12/02 08:18:37;;;;;;;20.85;9.85;;;;;10.00;102325.00;;;;5016655;28;20211;-75
2022/12/02 08:21:05;;;;;;;19.85;10.07;;;;;10.00;102326.00;;;;5007928;28;20686;-74
2022/12/02 08:23:32;;;;;;;24.17;12.68;;;;;10.00;102324.00;;;;5008096;28;20203;-75
2022/12/02 08:26:00;;;;;;;18.13;10.68;;;;;10.00;102325.00;;;;5008079;28;20201;-74
2022/12/02 08:28:27;;;;;;;19.77;9.82;;;;;10.00;102321.00;;;;5026829;28;20544;-74
2022/12/02 08:30:55;;;;;;;18.88;9.88;;;;;10.00;102331.00;;;;5015071;28;20675;-74
2022/12/02 08:33:23;;;;;;;19.40;10.95;;;;;10.00;102321.00;;;;5015530;28;20224;-74
2022/12/02 08:35:50;;;;;;;18.55;10.40;;;;;10.00;102327.00;;;;5011363;28;20225;-74
2022/12/02 08:38:17;;;;;;;18.98;10.40;;;;;10.00;102324.00;;;;5013328;28;20204;-74
2022/12/02 08:40:45;;;;;;;17.77;9.10;;;;;10.00;102331.00;;;;5028343;28;20196;-74
2022/12/02 08:43:12;;;;;;;19.40;11.07;;;;;10.00;102339.00;;;;5012152;28;20216;-74
2022/12/02 08:45:39;;;;;;;22.50;11.35;;;;;10.00;102333.00;;;;5019936;28;20200;-74
2022/12/02 08:48:08;;;;;;;20.25;11.43;;;;;10.00;102334.00;;;;5021555;28;20827;-74
2022/12/02 08:50:35;;;;;;;20.48;11.48;;;;;10.00;102328.00;;;;5010424;28;20209;-74
2022/12/02 08:53:03;;;;;;;18.02;11.25;;;;;10.00;102332.00;;;;5008030;28;20650;-74
2022/12/02 08:55:30;;;;;;;18.35;10.35;;;;;10.00;102331.00;;;;5008259;28;20193;-75
2022/12/02 08:57:57;;;;;;;22.10;11.57;;;;;10.00;102328.00;;;;5008322;28;20197;-75
2022/12/02 09:00:25;;;;;;;20.10;10.43;;;;;10.00;102322.00;;;;5007697;28;20212;-75
2022/12/02 09:02:52;;;;;;;19.17;10.30;;;;;10.00;102323.00;;;;5012585;28;20224;-74
2022/12/02 09:05:21;;;;;;;23.13;12.13;;;;;10.00;102318.00;;;;5026903;28;20199;-75
2022/12/02 09:07:49;;;;;;;19.25;10.52;;;;;10.00;102321.00;;;;5022416;28;20204;-74
2022/12/02 09:10:16;;;;;;;20.13;11.07;;;;;10.00;102314.00;;;;5024099;28;20207;-75
2022/12/02 09:12:43;;;;;;;22.63;11.07;;;;;10.00;102322.00;;;;5030755;28;20212;-75
2022/12/02 09:15:11;;;;;;;16.75;9.20;;;;;10.00;102332.00;;;;5031315;28;20235;-75
2022/12/02 09:17:38;;;;;;;20.75;10.82;;;;;10.00;102328.00;;;;5028027;28;20192;-75
2022/12/02 09:20:06;;;;;;;20.70;9.80;;;;;10.00;102318.00;;;;5030980;28;20200;-75
2022/12/02 09:22:35;;;;;;;19.70;11.55;;;;;10.00;102317.00;;;;5030600;28;20581;-75
2022/12/02 09:25:02;;;;;;;17.77;10.27;;;;;10.10;102323.00;;;;5018380;28;20212;-75
2022/12/02 09:27:30;;;;;;;28.77;10.80;;;;;10.10;102328.00;;;;5011502;28;20286;-75
2022/12/02 09:29:57;;;;;;;20.90;10.45;;;;;10.10;102331.00;;;;5011376;28;20275;-75
2022/12/02 09:32:25;;;;;;;20.55;10.55;;;;;10.10;102333.00;;;;5011109;28;20435;-75
2022/12/02 09:34:52;;;;;;;21.48;10.48;;;;;10.10;102324.00;;;;5011317;28;20236;-75
2022/12/02 09:37:19;;;;;;;20.05;10.38;;;;;10.10;102316.00;;;;5011059;28;20886;-75
2022/12/02 09:39:48;;;;;;;19.30;9.50;;;;;10.10;102322.00;;;;5011178;28;20205;-75
2022/12/02 09:42:16;;;;;;;18.17;11.00;;;;;10.00;102323.00;;;;5018986;28;20215;-75
2022/12/02 09:44:44;;;;;;;17.75;10.27;;;;;10.00;102311.00;;;;5025852;28;20546;-75
2022/12/02 09:47:13;;;;;;;21.67;11.35;;;;;10.00;102312.00;;;;5018270;28;20212;-75
2022/12/02 09:49:41;;;;;;;19.50;10.25;;;;;10.00;102301.00;;;;5023958;28;20382;-75
2022/12/02 09:52:14;;;;;;;18.67;9.52;;;;;10.00;102301.00;;;;5025278;28;20204;-75
2022/12/02 09:54:41;;;;;;;17.70;10.00;;;;;10.10;102306.00;;;;5014309;28;20232;-75
2022/12/02 09:57:13;;;;;;;19.35;10.40;;;;;10.00;102299.00;;;;5011457;28;20201;-75
2022/12/02 09:59:41;;;;;;;20.60;10.70;;;;;10.10;102298.00;;;;5020368;28;20218;-75
2022/12/02 10:02:21;;;;;;;18.17;9.85;;;;;10.10;102293.00;;;;5023155;28;20235;-76
2022/12/02 10:04:48;;;;;;;22.27;10.82;;;;;10.20;102294.00;;;;5012577;28;20212;-75
2022/12/02 10:07:16;;;;;;;20.90;11.32;;;;;10.20;102297.00;;;;5017261;28;20188;-75
2022/12/02 10:09:43;;;;;;;17.83;10.30;;;;;10.20;102296.00;;;;5029608;28;20215;-74
2022/12/02 10:12:12;;;;;;;22.17;10.80;;;;;10.20;102298.00;;;;5018957;28;20200;-75
2022/12/02 10:14:40;;;;;;;18.90;10.00;;;;;10.20;102292.00;;;;5010872;28;20228;-75
2022/12/02 10:17:16;;;;;;;17.27;9.27;;;;;10.20;102298.00;;;;5014834;28;20216;-75
2022/12/02 10:19:45;;;;;;;17.70;10.30;;;;;10.20;102292.00;;;;5013886;28;20208;-75
2022/12/02 10:22:17;;;;;;;20.25;9.98;;;;;10.20;102296.00;;;;5030489;28;20222;-75
2022/12/02 10:24:45;;;;;;;21.25;11.00;;;;;10.20;102301.00;;;;5024873;28;20197;-75
2022/12/02 10:27:26;;;;;;;18.38;9.43;;;;;10.10;102301.00;;;;5017254;28;20683;-75
2022/12/02 10:29:53;;;;;;;19.27;9.90;;;;;10.20;102297.00;;;;5023305;28;20657;-75
2022/12/02 10:32:23;;;;;;;18.20;9.93;;;;;10.20;102296.00;;;;5013616;28;20201;-75
2022/12/02 10:35:04;;;;;;;21.42;10.88;;;;;10.10;102296.00;;;;5006248;28;20235;-75
2022/12/02 10:37:33;;;;;;;17.63;9.20;;;;;10.20;102294.00;;;;5012997;28;20193;-75
2022/12/02 10:40:10;;;;;;;16.17;8.48;;;;;10.20;102289.00;;;;5009946;28;20233;-75
2022/12/02 10:42:38;;;;;;;19.67;10.18;;;;;10.30;102290.00;;;;5011613;28;20667;-75
2022/12/02 10:45:21;;;;;;;24.40;11.95;;;;;10.20;102288.00;;;;5019714;28;20205;-75
2022/12/02 10:47:50;;;;;;;18.88;10.43;;;;;10.30;102293.00;;;;5013921;28;20224;-75
2022/12/02 10:50:20;;;;;;;16.00;9.20;;;;;10.30;102279.00;;;;5017125;28;20200;-75
2022/12/02 10:52:50;;;;;;;20.33;10.52;;;;;10.30;102280.00;;;;5010942;28;20251;-75
2022/12/02 10:55:18;;;;;;;22.55;10.73;;;;;10.30;102269.00;;;;5011265;28;20220;-75
2022/12/02 10:57:49;;;;;;;22.38;10.68;;;;;10.30;102265.00;;;;5018469;28;20209;-75
2022/12/02 11:00:19;;;;;;;21.55;10.65;;;;;10.30;102275.00;;;;5012335;28;20223;-75
2022/12/02 11:02:48;;;;;;;20.00;10.55;;;;;10.40;102276.00;;;;5008694;28;20220;-75
2022/12/02 11:05:18;;;;;;;20.08;10.95;;;;;10.30;102270.00;;;;5008550;28;20197;-75
2022/12/02 11:07:54;;;;;;;22.10;10.80;;;;;10.30;102271.00;;;;5012363;28;20205;-75
2022/12/02 11:10:23;;;;;;;21.02;10.95;;;;;10.30;102276.00;;;;5018308;28;20598;-75
2022/12/02 11:13:04;;;;;;;22.30;12.55;;;;;10.20;102275.00;;;;5014732;28;20245;-75
2022/12/02 11:15:39;;;;;;;19.20;10.40;;;;;10.30;102270.00;;;;5013836;28;20227;-75
2022/12/02 11:18:07;;;;;;;18.25;10.65;;;;;10.30;102275.00;;;;5026899;28;20208;-75
2022/12/02 11:20:37;;;;;;;21.63;10.98;;;;;10.30;102266.00;;;;5010587;28;20204;-75
2022/12/02 11:23:21;;;;;;;22.77;11.15;;;;;10.20;102269.00;;;;5009546;28;20205;-75
2022/12/02 11:26:03;;;;;;;20.65;9.63;;;;;10.20;102266.00;;;;5006824;28;20205;-75
2022/12/02 11:29:15;;;;;;;23.38;10.77;;;;;10.20;102275.00;;;;5009037;28;20660;-75
2022/12/02 11:31:42;;;;;;;21.42;10.48;;;;;10.30;102285.00;;;;5009190;28;20654;-75
2022/12/02 11:34:41;;;;;;;21.98;10.73;;;;;10.20;102283.00;;;;5009561;28;20233;-75
2022/12/02 11:37:48;;;;;;;24.67;11.60;;;;;10.10;102270.00;;;;5009554;28;20209;-75
2022/12/02 11:40:48;;;;;;;21.90;9.93;;;;;10.10;102271.00;;;;5009281;28;20597;-75
2022/12/02 11:43:54;;;;;;;22.88;10.60;;;;;10.10;102268.00;;;;4989025;28;20201;-75
2022/12/02 11:46:38;;;;;;;20.13;10.02;;;;;10.20;102264.00;;;;5009256;28;20205;-75
2022/12/02 11:49:30;;;;;;;20.70;10.25;;;;;10.10;102262.00;;;;5009205;28;20201;-75
2022/12/02 11:52:17;;;;;;;23.30;11.38;;;;;10.10;102258.00;;;;5007250;28;20586;-75
2022/12/02 11:54:48;;;;;;;21.77;10.20;;;;;10.20;102259.00;;;;5011392;28;20231;-75
2022/12/02 11:57:20;;;;;;;22.48;12.00;;;;;10.20;102267.00;;;;5026737;28;20736;-75
2022/12/02 11:59:48;;;;;;;24.58;11.57;;;;;10.20;102266.00;;;;5013683;28;20688;-75
2022/12/02 12:02:19;;;;;;;23.33;11.80;;;;;10.20;102257.00;;;;5012964;28;20221;-75
2022/12/02 12:04:46;;;;;;;25.27;11.52;;;;;10.20;102259.00;;;;5008589;28;20208;-75
2022/12/02 12:07:14;;;;;;;23.60;11.27;;;;;10.20;102255.00;;;;5009071;28;20586;-75